Time;durP1;ratioP1;P1;durP2;ratioP2;P2;SDS_P1;SDS_P2;PMS_P1;PMS_P2;Temp;Humidity;BMP_temperature;BMP_pressure;BME280_temperature;BME280_humidity;BME280_pressure;Samples;Min_cycle;Max_cycle;Signal;HPM_P1;HPM_P2
2022/09/09 08:19:41;;;;;;;3.20;3.00;;;;;;;26.54;40.39;94610.59;2619284;54;20279;-86
2022/09/09 08:22:52;;;;;;;2.78;2.65;;;;;;;27.30;40.85;94684.63;2626961;54;20149;-84
2022/09/09 08:25:21;;;;;;;4.78;2.80;;;;;;;27.12;41.00;94662.63;2624170;54;20189;-87
2022/09/09 08:27:50;;;;;;;2.92;2.72;;;;;;;26.53;40.56;94556.19;2618775;47;20172;-86
2022/09/09 08:30:19;;;;;;;2.60;2.40;;;;;;;26.56;41.42;94659.22;2619666;54;20152;-83
2022/09/09 08:32:48;;;;;;;2.83;2.63;;;;;;;26.49;41.96;94631.84;2627622;47;20164;-84
2022/09/09 08:35:22;;;;;;;2.78;2.58;;;;;;;26.15;41.75;94567.47;2623151;47;20748;-86
2022/09/09 08:37:50;;;;;;;2.63;2.42;;;;;;;27.02;41.77;94689.13;2618407;47;20152;-84
2022/09/09 08:40:30;;;;;;;3.67;2.55;;;;;;;26.47;41.89;94626.81;2618162;54;20307;-87
2022/09/09 08:43:02;;;;;;;2.58;2.45;;;;;;;26.87;40.61;94685.91;2586208;47;20220;-80
2022/09/09 08:48:16;;;;;;;5.47;2.35;;;;;;;26.47;42.74;94669.66;2607431;54;20802;-79
2022/09/09 08:51:01;;;;;;;2.38;2.28;;;;;;;26.39;40.42;94629.94;2617143;54;20153;-81
2022/09/09 08:53:34;;;;;;;2.78;2.58;;;;;;;26.66;41.83;94644.38;2617922;54;20184;-84
2022/09/09 08:56:11;;;;;;;2.05;1.95;;;;;;;26.78;40.51;94678.91;2627235;47;20210;-83
2022/09/09 08:58:48;;;;;;;2.95;2.75;;;;;;;26.52;40.61;94615.75;2618551;54;20163;-83
2022/09/09 09:02:01;;;;;;;2.30;2.20;;;;;;;27.25;40.92;94663.66;2617513;47;20157;-79
2022/09/09 09:04:47;;;;;;;2.15;2.05;;;;;;;27.23;39.30;94639.75;2616849;47;20172;-82
2022/09/09 09:07:28;;;;;;;3.10;2.42;;;;;;;27.26;39.70;94658.56;2617147;54;20279;-84
2022/09/09 09:10:03;;;;;;;2.85;2.65;;;;;;;27.09;40.17;94657.66;2618372;39;20553;-84
2022/09/09 09:12:40;;;;;;;2.55;2.35;;;;;;;26.51;39.65;94565.00;2618756;54;20149;-83
2022/09/09 09:15:17;;;;;;;1.95;1.85;;;;;;;27.47;38.82;94667.38;2618199;54;20149;-82
2022/09/09 09:17:46;;;;;;;6.05;3.65;;;;;;;26.78;39.02;94611.38;2618120;54;20145;-81
2022/09/09 09:20:17;;;;;;;2.63;2.42;;;;;;;26.71;40.88;94660.22;2616249;54;20157;-82
2022/09/09 09:22:52;;;;;;;2.70;2.47;;;;;;;26.04;40.84;94635.28;2616337;54;20148;-80
2022/09/09 09:25:23;;;;;;;2.58;2.38;;;;;;;26.67;41.28;94634.19;2618301;47;20281;-80
2022/09/09 09:28:05;;;;;;;5.13;2.47;;;;;;;26.22;40.12;94535.34;2618974;39;20639;-82
2022/09/09 09:30:41;;;;;;;1.95;1.85;;;;;;;27.18;40.33;94670.47;2618403;47;20156;-82
2022/09/09 09:33:20;;;;;;;3.60;2.83;;;;;;;27.46;39.30;94669.56;2618191;54;20153;-82
2022/09/09 09:35:50;;;;;;;2.40;2.30;;;;;;;26.30;40.07;94604.81;2617400;54;20156;-81
2022/09/09 09:38:24;;;;;;;3.05;2.75;;;;;;;25.64;41.99;94646.47;2618275;54;20145;-82
2022/09/09 09:40:57;;;;;;;2.70;2.50;;;;;;;26.62;40.67;94661.97;2617645;54;20156;-79
2022/09/09 09:43:29;;;;;;;2.92;2.75;;;;;;;26.70;40.28;94632.66;2618383;47;20156;-79
2022/09/09 09:45:59;;;;;;;2.13;2.03;;;;;;;26.70;39.55;94615.22;2619791;54;20267;-79
2022/09/09 09:48:30;;;;;;;3.03;2.85;;;;;;;26.77;40.16;94633.19;2623161;52;20184;-79
2022/09/09 09:51:02;;;;;;;2.13;1.92;;;;;;;26.32;39.96;94637.41;2621835;47;20636;-80
2022/09/09 09:53:36;;;;;;;2.13;2.03;;;;;;;26.29;39.42;94562.75;2626882;54;20167;-84
2022/09/09 09:56:08;;;;;;;2.67;2.47;;;;;;;26.15;39.31;94535.53;2620328;47;20164;-81
2022/09/09 09:58:54;;;;;;;2.45;2.30;;;;;;;26.68;39.94;94609.47;2617282;47;20165;-81
2022/09/09 10:01:27;;;;;;;2.70;2.50;;;;;;;27.15;38.91;94619.69;2618322;47;20156;-83
2022/09/09 10:06:37;;;;;;;2.08;1.98;;;;;;;26.50;41.08;94610.75;2618964;54;20240;-84
2022/09/09 10:09:24;;;;;;;2.40;2.20;;;;;;;26.19;40.94;94625.41;2627237;47;20179;-81
2022/09/09 10:12:03;;;;;;;3.05;2.13;;;;;;;26.06;40.76;94626.50;2619104;54;20149;-84
2022/09/09 10:14:40;;;;;;;2.30;2.10;;;;;;;26.46;40.26;94660.22;2616557;54;20148;-85
2022/09/09 10:17:21;;;;;;;4.28;2.40;;;;;;;25.89;40.19;94541.38;2619117;47;20153;-82
2022/09/09 10:20:04;;;;;;;2.63;2.42;;;;;;;26.69;40.14;94602.19;2617997;54;20157;-85
2022/09/09 10:22:36;;;;;;;2.40;2.20;;;;;;;26.57;40.69;94578.59;2618915;47;20161;-82
2022/09/09 10:25:51;;;;;;;2.40;2.20;;;;;;;27.35;38.80;94659.00;2619425;54;20195;-86
2022/09/09 10:28:43;;;;;;;2.22;2.10;;;;;;;27.75;40.22;94651.16;2620255;54;20165;-86
2022/09/09 10:31:22;;;;;;;2.42;2.33;;;;;;;27.55;39.50;94609.63;2622069;54;20172;-83
2022/09/09 10:33:56;;;;;;;3.50;2.65;;;;;;;27.73;38.07;94605.41;2621077;54;20157;-84
2022/09/09 10:36:29;;;;;;;2.67;2.45;;;;;;;27.77;38.89;94642.38;2624751;54;20149;-81
2022/09/09 10:39:06;;;;;;;5.10;3.15;;;;;;;27.86;38.84;94637.72;2606795;54;20299;-83
2022/09/09 10:42:16;;;;;;;2.47;2.38;;;;;;;28.00;39.08;94634.31;2620733;54;20156;-83
2022/09/09 10:57:42;;;;;;;2.67;2.47;;;;;;;27.51;38.57;94641.75;2617771;54;20152;-83
2022/09/09 14:24:15;;;;;;;3.20;3.00;;;;;;;25.35;48.84;94397.13;2615247;54;20561;-84
2022/09/09 14:26:50;;;;;;;3.60;3.40;;;;;;;24.98;49.08;94370.66;2614880;54;20203;-84
2022/09/09 14:32:00;;;;;;;3.33;3.13;;;;;;;24.71;48.46;94333.72;2615352;47;20203;-82
2022/09/09 14:34:32;;;;;;;4.18;3.08;;;;;;;25.62;48.21;94460.22;2616602;54;20168;-82
2022/09/09 14:37:02;;;;;;;3.65;3.35;;;;;;;25.34;47.98;94409.50;2616707;47;20186;-81
2022/09/09 14:39:33;;;;;;;2.70;2.50;;;;;;;25.09;48.11;94377.59;2616576;46;20214;-81
2022/09/09 14:42:02;;;;;;;4.32;2.63;;;;;;;24.97;48.11;94364.16;2613942;47;20168;-85
2022/09/09 14:47:56;;;;;;;2.47;2.35;;;;;;;25.40;47.77;94418.75;2613994;47;20184;-80
2022/09/09 14:53:47;;;;;;;3.45;3.15;;;;;;;25.78;47.22;94416.22;2618307;47;20148;-86
2022/09/09 14:56:21;;;;;;;2.78;2.58;;;;;;;25.55;46.58;94374.84;2613947;54;20244;-80
2022/09/09 14:58:50;;;;;;;2.58;2.47;;;;;;;26.14;46.98;94428.91;2614215;54;20189;-79
2022/09/09 15:01:22;;;;;;;2.60;2.40;;;;;;;26.14;46.67;94423.09;2614809;39;20662;-79
2022/09/09 15:03:53;;;;;;;2.60;2.50;;;;;;;26.55;45.94;94463.91;2615772;47;20190;-82
2022/09/09 15:06:23;;;;;;;2.90;2.70;;;;;;;26.92;45.82;94464.91;2621562;47;20165;-82
2022/09/09 15:08:54;;;;;;;4.03;3.58;;;;;;;26.93;45.80;94455.44;2619285;47;20167;-82
2022/09/09 15:11:30;;;;;;;7.05;6.20;;;;;;;26.88;46.76;94468.66;2615297;47;20183;-83
2022/09/09 15:13:59;;;;;;;3.80;3.05;;;;;;;26.96;45.31;94456.06;2615669;47;20176;-83
2022/09/09 15:16:29;;;;;;;4.07;3.03;;;;;;;27.09;44.92;94471.59;2613903;47;20683;-82
2022/09/09 15:19:00;;;;;;;4.68;2.70;;;;;;;26.43;45.97;94409.13;2615749;47;20169;-81
2022/09/09 15:21:31;;;;;;;2.92;2.72;;;;;;;26.62;46.09;94458.63;2615402;47;20177;-80
2022/09/09 15:24:00;;;;;;;3.40;3.17;;;;;;;27.10;45.87;94464.31;2615617;47;20679;-79
2022/09/09 15:26:40;;;;;;;3.88;2.55;;;;;;;27.01;45.28;94417.38;2615160;39;20529;-78
2022/09/09 15:29:10;;;;;;;4.13;2.85;;;;;;;26.83;45.56;94378.00;2613300;54;20157;-78
2022/09/09 15:31:39;;;;;;;4.80;3.25;;;;;;;26.76;47.13;94429.09;2616741;54;20190;-78
2022/09/09 15:34:09;;;;;;;2.90;2.75;;;;;;;26.35;48.99;94440.63;2615075;54;20657;-78
2022/09/09 15:36:39;;;;;;;3.30;3.08;;;;;;;26.18;49.55;94443.28;2614718;54;20176;-78
2022/09/09 15:39:12;;;;;;;3.30;3.00;;;;;;;25.90;50.95;94439.06;2614863;54;20759;-80
2022/09/09 15:41:44;;;;;;;4.55;3.53;;;;;;;25.54;50.90;94382.13;2614200;47;20173;-81
2022/09/09 15:44:14;;;;;;;2.83;2.65;;;;;;;26.18;51.84;94444.00;2613970;54;20164;-83
2022/09/09 15:46:45;;;;;;;3.22;2.92;;;;;;;25.89;51.96;94422.44;2615502;47;20164;-83
2022/09/09 15:49:15;;;;;;;5.78;3.55;;;;;;;25.72;49.98;94370.00;2617359;54;20145;-82
2022/09/09 15:51:45;;;;;;;3.78;3.47;;;;;;;25.89;50.72;94364.41;2617024;54;20679;-83
2022/09/09 15:54:26;;;;;;;;;;;;;;;;;;;;;
2022/09/09 15:56:59;;;;;;;4.75;3.30;;;;;;;25.53;51.34;94369.09;2619226;54;20261;-83
2022/09/09 15:59:34;;;;;;;3.75;3.45;;;;;;;25.59;50.23;94363.09;2619543;54;20153;-83
2022/09/09 16:02:04;;;;;;;2.92;2.78;;;;;;;26.27;50.12;94426.31;2613694;54;20145;-83
2022/09/09 16:04:34;;;;;;;2.53;2.42;;;;;;;25.63;49.66;94386.94;2619010;47;20176;-82
2022/09/09 16:07:05;;;;;;;3.50;3.15;;;;;;;25.08;51.89;94379.06;2620769;47;20165;-84
2022/09/09 16:09:35;;;;;;;8.63;3.28;;;;;;;25.17;50.88;94374.47;2621351;46;20164;-83
2022/09/09 16:12:09;;;;;;;4.55;3.33;;;;;;;25.28;52.55;94432.88;2619838;47;20280;-83
2022/09/09 16:18:21;;;;;;;3.55;2.92;;;;;;;25.37;49.68;94362.31;2624959;46;20172;-83
2022/09/09 16:20:56;;;;;;;6.38;3.88;;;;;;;25.34;52.17;94456.59;2622988;54;20144;-83
2022/09/09 16:23:26;;;;;;;3.35;3.15;;;;;;;24.96;52.50;94434.44;2618207;46;20319;-83
2022/09/09 16:25:57;;;;;;;3.83;3.47;;;;;;;23.74;53.23;94347.69;2618623;47;20306;-84
2022/09/09 16:28:29;;;;;;;2.92;2.75;;;;;;;23.31;53.72;94337.03;2618510;47;20153;-84
2022/09/09 16:30:58;;;;;;;4.18;3.85;;;;;;;23.55;55.13;94392.91;2618584;54;20729;-85
2022/09/09 16:33:28;;;;;;;3.60;3.30;;;;;;;23.31;54.85;94347.88;2618350;54;20236;-84
2022/09/09 16:35:57;;;;;;;3.33;3.13;;;;;;;23.14;55.54;94375.69;2618182;47;20172;-84
2022/09/09 16:38:25;;;;;;;7.88;3.95;;;;;;;23.23;55.40;94360.34;2617940;54;20161;-84
2022/09/09 16:41:01;;;;;;;4.90;3.40;;;;;;;24.17;54.81;94457.34;2617724;47;20161;-83
2022/09/09 16:43:32;;;;;;;3.95;3.67;;;;;;;23.65;53.86;94352.94;2618779;47;20156;-81
2022/09/09 16:46:02;;;;;;;4.80;3.33;;;;;;;23.55;53.61;94329.31;2626006;47;20158;-82
2022/09/09 16:48:34;;;;;;;8.38;3.13;;;;;;;23.35;54.42;94313.84;2620987;54;20761;-84
2022/09/09 16:51:07;;;;;;;4.13;3.83;;;;;;;24.08;55.04;94447.41;2618324;54;20152;-78
2022/09/09 16:53:36;;;;;;;3.78;3.05;;;;;;;23.77;56.01;94438.72;2619241;54;20156;-85
2022/09/09 16:56:08;;;;;;;6.20;3.65;;;;;;;23.54;55.17;94369.06;2619455;54;20152;-83
2022/09/09 16:58:41;;;;;;;5.20;4.05;;;;;;;23.96;54.37;94384.75;2618875;46;20157;-83
2022/09/09 17:01:10;;;;;;;3.45;3.25;;;;;;;23.32;54.67;94315.34;2620985;54;20198;-83
2022/09/09 17:03:39;;;;;;;3.53;3.22;;;;;;;23.70;54.35;94370.91;2620697;39;20517;-82
2022/09/09 17:06:12;;;;;;;4.15;3.78;;;;;;;24.01;54.90;94365.13;2618489;54;20652;-82
2022/09/09 17:08:41;;;;;;;2.80;2.60;;;;;;;24.08;54.82;94378.69;2618380;54;20145;-83
2022/09/09 17:11:16;;;;;;;3.50;3.28;;;;;;;24.59;51.11;94371.69;2618499;47;20145;-82
2022/09/09 17:13:48;;;;;;;3.10;2.80;;;;;;;24.83;50.46;94367.41;2619642;47;20156;-82
2022/09/09 17:16:21;;;;;;;2.95;2.75;;;;;;;25.34;49.89;94401.53;2618465;54;20195;-83
2022/09/09 17:18:50;;;;;;;3.08;2.88;;;;;;;25.60;49.67;94425.44;2619504;47;20153;-83
2022/09/09 17:24:47;;;;;;;5.05;2.83;;;;;;;25.25;49.31;94362.66;2618958;47;20156;-84
2022/09/09 17:27:16;;;;;;;3.38;3.08;;;;;;;25.18;49.03;94378.78;2620683;54;20152;-83
2022/09/09 17:30:11;;;;;;;3.80;3.47;;;;;;;25.41;50.22;94460.75;2629616;54;20165;-82
2022/09/09 17:32:41;;;;;;;4.35;3.97;;;;;;;24.29;51.95;94344.22;2629843;46;20171;-82
2022/09/09 17:35:11;;;;;;;5.43;3.22;;;;;;;24.40;54.70;94454.66;2621124;54;20252;-81
2022/09/09 17:37:39;;;;;;;3.58;3.28;;;;;;;23.27;55.38;94374.69;2619323;54;20152;-82
2022/09/09 17:43:28;;;;;;;3.53;3.38;;;;;;;23.92;54.71;94410.16;2618624;54;20165;-83
2022/09/09 17:46:08;;;;;;;3.92;3.63;;;;;;;23.43;56.86;94468.28;2618545;54;20165;-82
2022/09/09 17:48:37;;;;;;;4.55;3.83;;;;;;;23.22;57.46;94486.03;2618893;47;20152;-82
2022/09/09 17:51:08;;;;;;;3.35;3.15;;;;;;;22.46;58.03;94413.72;2618962;54;20157;-83
2022/09/09 17:53:41;;;;;;;3.58;3.38;;;;;;;22.47;59.71;94449.78;2618522;47;20177;-83
2022/09/09 17:56:12;;;;;;;5.55;3.83;;;;;;;21.71;59.52;94345.69;2618211;54;20171;-84
2022/09/09 17:58:41;;;;;;;4.68;4.30;;;;;;;22.02;59.87;94405.78;2618348;54;20678;-83
2022/09/09 18:01:15;;;;;;;6.85;4.10;;;;;;;22.63;59.07;94458.16;2619288;54;20675;-82
2022/09/09 18:03:46;;;;;;;5.53;4.05;;;;;;;23.16;57.38;94480.34;2626358;54;20171;-83
2022/09/09 18:06:17;;;;;;;8.00;5.35;;;;;;;23.49;58.08;94497.81;2619060;47;20169;-83
2022/09/09 18:08:50;;;;;;;4.55;4.25;;;;;;;22.11;58.88;94335.00;2617492;54;20176;-83
2022/09/09 18:11:22;;;;;;;3.33;3.13;;;;;;;22.20;59.53;94422.81;2617593;54;20271;-83
2022/09/09 18:13:55;;;;;;;4.55;3.42;;;;;;;22.00;60.99;94444.03;2617339;47;20160;-83
2022/09/09 18:16:27;;;;;;;4.85;3.63;;;;;;;20.90;61.91;94343.91;2617585;54;20175;-84
2022/09/09 18:18:58;;;;;;;4.82;4.32;;;;;;;20.99;63.13;94382.66;2617949;54;20165;-83
2022/09/09 18:21:28;;;;;;;6.38;3.78;;;;;;;21.12;64.11;94435.75;2619357;54;20167;-83
2022/09/09 18:24:02;;;;;;;4.70;4.00;;;;;;;20.96;64.72;94427.28;2619441;54;20185;-82
2022/09/09 18:26:32;;;;;;;4.30;3.72;;;;;;;21.49;64.21;94473.50;2618085;54;20168;-83
2022/09/09 18:29:03;;;;;;;3.22;2.88;;;;;;;21.72;62.75;94448.00;2619890;54;20176;-83
2022/09/09 18:31:36;;;;;;;3.58;3.30;;;;;;;22.19;63.28;94531.72;2618756;54;20458;-82
2022/09/09 18:34:08;;;;;;;3.50;3.22;;;;;;;21.40;63.27;94440.50;2618980;47;20202;-81
2022/09/09 18:36:42;;;;;;;7.20;4.93;;;;;;;21.28;63.98;94414.72;2618245;54;20156;-82
2022/09/09 18:39:12;;;;;;;5.38;3.85;;;;;;;21.63;61.90;94409.22;2618868;54;20210;-83
2022/09/09 18:41:48;;;;;;;3.60;3.30;;;;;;;22.74;61.54;94550.38;2620579;47;20148;-82
2022/09/09 18:44:20;;;;;;;3.97;3.67;;;;;;;22.51;62.64;94516.09;2627427;54;20162;-83
2022/09/09 18:46:52;;;;;;;3.97;3.70;;;;;;;22.65;62.38;94556.28;2619046;47;20194;-82
2022/09/09 18:49:23;;;;;;;4.35;3.63;;;;;;;22.48;63.12;94552.22;2618928;54;20145;-83
2022/09/09 18:51:52;;;;;;;3.25;3.05;;;;;;;22.05;62.96;94494.41;2618339;54;20157;-83
2022/09/09 18:54:44;;;;;;;2.97;2.53;;;;;;;22.19;61.99;94482.66;2618508;54;20152;-83
2022/09/09 18:57:13;;;;;;;3.80;3.15;;;;;;;21.72;63.28;94465.31;2617641;47;20178;-83
2022/09/09 19:00:11;;;;;;;3.10;2.90;;;;;;;22.41;62.86;94544.41;2619094;54;20145;-82
2022/09/09 19:02:42;;;;;;;3.40;3.17;;;;;;;22.31;62.50;94510.63;2618344;47;20176;-84
2022/09/09 19:08:27;;;;;;;11.70;3.92;;;;;;;21.80;63.06;94442.13;2617438;47;20181;-82
2022/09/09 19:10:56;;;;;;;3.20;3.00;;;;;;;22.00;64.67;94529.84;2618012;47;20168;-82
2022/09/09 19:13:25;;;;;;;4.30;2.72;;;;;;;21.22;63.27;94406.16;2618019;47;20164;-83
2022/09/09 19:15:54;;;;;;;3.35;2.70;;;;;;;21.15;64.56;94390.38;2618025;54;20195;-82
2022/09/09 19:18:26;;;;;;;4.85;3.83;;;;;;;21.90;64.24;94501.81;2618510;54;20149;-82
2022/09/09 19:20:55;;;;;;;3.90;3.22;;;;;;;21.38;64.49;94416.75;2617956;54;20171;-82
2022/09/09 19:23:29;;;;;;;4.35;3.10;;;;;;;21.57;64.72;94452.53;2620783;54;20636;-84
2022/09/09 19:26:05;;;;;;;3.40;3.03;;;;;;;22.05;64.96;94520.38;2628877;39;20620;-83
2022/09/09 19:28:34;;;;;;;4.00;3.70;;;;;;;21.40;64.62;94434.72;2620675;54;20206;-83
2022/09/09 19:31:05;;;;;;;2.97;2.70;;;;;;;21.31;64.45;94392.38;2619968;54;20152;-83
2022/09/09 19:33:38;;;;;;;3.53;3.10;;;;;;;21.87;63.39;94448.50;2619386;54;20145;-82
2022/09/09 19:36:09;;;;;;;3.08;2.78;;;;;;;21.91;64.63;94449.16;2619142;47;20161;-83
2022/09/09 19:38:39;;;;;;;3.78;3.47;;;;;;;21.29;64.59;94398.88;2620636;54;20191;-82
2022/09/09 19:41:11;;;;;;;3.55;3.08;;;;;;;21.77;60.81;94383.06;2619345;54;20145;-83
2022/09/09 19:43:39;;;;;;;4.63;2.97;;;;;;;22.25;59.23;94386.69;2618567;47;20159;-83
2022/09/09 19:46:10;;;;;;;4.97;3.40;;;;;;;22.70;59.13;94424.13;2619402;47;20176;-82
2022/09/09 19:48:44;;;;;;;3.50;3.20;;;;;;;22.63;62.22;94443.75;2618893;54;20145;-82
2022/09/09 19:51:15;;;;;;;3.88;3.58;;;;;;;21.93;62.38;94339.56;2619736;39;20875;-83
2022/09/09 19:53:47;;;;;;;2.65;2.55;;;;;;;21.93;62.62;94400.13;2620675;54;20223;-83
2022/09/09 19:56:17;;;;;;;4.38;3.40;;;;;;;21.93;64.68;94457.78;2626418;54;20145;-82
2022/09/09 19:58:47;;;;;;;2.92;2.72;;;;;;;21.04;65.02;94335.09;2624111;54;20148;-83
2022/09/09 20:01:18;;;;;;;3.25;3.00;;;;;;;21.41;65.58;94392.22;2619479;54;20153;-82
2022/09/09 20:03:53;;;;;;;4.43;3.00;;;;;;;21.85;66.42;94477.38;2620189;54;20145;-82
2022/09/09 20:06:25;;;;;;;3.20;3.00;;;;;;;21.09;66.93;94404.84;2619677;46;20164;-83
2022/09/09 20:08:55;;;;;;;3.90;3.58;;;;;;;21.20;66.97;94414.81;2619238;47;20156;-82
2022/09/09 20:11:24;;;;;;;2.97;2.78;;;;;;;20.99;66.66;94373.28;2619501;54;20144;-83
2022/09/09 20:13:53;;;;;;;3.13;2.92;;;;;;;21.17;68.90;94451.56;2618964;54;20217;-83
2022/09/09 20:26:13;;;;;;;2.90;2.50;;;;;;;21.77;60.79;94321.81;2616606;47;20156;-82
2022/09/09 20:28:43;;;;;;;3.83;3.53;;;;;;;22.44;59.38;94381.31;2617224;46;20153;-83
2022/09/09 20:31:15;;;;;;;3.53;3.22;;;;;;;22.34;58.13;94322.31;2618176;54;20174;-84
2022/09/09 20:33:45;;;;;;;2.80;2.53;;;;;;;23.01;57.41;94378.09;2618849;54;20145;-82
2022/09/09 20:36:16;;;;;;;3.92;3.53;;;;;;;23.77;56.77;94475.59;2621001;39;20543;-82
2022/09/09 20:38:45;;;;;;;2.95;2.75;;;;;;;23.33;56.55;94394.78;2621640;47;20160;-82
2022/09/09 20:41:20;;;;;;;6.13;3.45;;;;;;;22.86;58.25;94339.41;2620022;39;20219;-82
2022/09/09 20:43:50;;;;;;;3.30;3.00;;;;;;;23.18;60.26;94434.09;2622043;54;20247;-82
2022/09/09 20:46:20;;;;;;;4.07;3.20;;;;;;;22.08;62.86;94362.44;2624149;54;20172;-83
2022/09/09 20:48:50;;;;;;;5.88;3.05;;;;;;;21.41;65.83;94367.03;2619970;54;20153;-83
2022/09/09 20:51:20;;;;;;;3.08;2.78;;;;;;;20.83;68.93;94397.94;2619160;54;20161;-83
2022/09/09 20:53:50;;;;;;;3.05;2.85;;;;;;;21.32;64.57;94385.16;2618752;54;20152;-82
2022/09/09 20:56:22;;;;;;;5.05;3.38;;;;;;;21.97;64.36;94451.25;2619060;54;20149;-82
2022/09/09 20:58:50;;;;;;;4.53;3.00;;;;;;;21.92;65.43;94430.41;2620067;39;20357;-82
2022/09/09 21:01:20;;;;;;;3.90;3.58;;;;;;;21.27;65.13;94352.81;2619217;46;20258;-82
2022/09/09 21:03:50;;;;;;;2.97;2.78;;;;;;;21.04;65.75;94323.56;2619129;54;20171;-82
2022/09/09 21:06:19;;;;;;;3.80;3.58;;;;;;;21.36;66.77;94411.72;2619456;54;20157;-84
2022/09/09 21:08:50;;;;;;;3.10;2.90;;;;;;;21.23;66.60;94390.28;2622709;54;20156;-81
2022/09/09 21:11:22;;;;;;;3.92;3.63;;;;;;;20.81;66.69;94337.50;2625872;54;20160;-83
2022/09/09 21:13:52;;;;;;;3.08;2.88;;;;;;;21.28;68.31;94455.75;2618718;47;20156;-85
2022/09/09 21:16:22;;;;;;;4.63;3.88;;;;;;;21.59;65.49;94452.50;2619370;54;20152;-82
2022/09/09 21:18:51;;;;;;;6.20;3.38;;;;;;;22.40;62.38;94488.16;2623227;39;20615;-81
2022/09/09 21:21:23;;;;;;;3.55;3.25;;;;;;;22.29;63.58;94450.06;2620122;39;20537;-83
2022/09/09 21:23:55;;;;;;;4.35;3.95;;;;;;;21.53;65.74;94403.59;2623564;54;20191;-80
2022/09/09 21:26:27;;;;;;;3.42;3.13;;;;;;;20.97;66.36;94361.78;2626047;54;20175;-83
2022/09/09 21:28:56;;;;;;;4.28;3.88;;;;;;;20.92;65.93;94338.09;2623066;54;20268;-83
2022/09/09 21:38:30;;;;;;;6.93;3.78;;;;;;;21.70;64.17;94407.69;2617112;47;20181;-83
2022/09/09 21:40:59;;;;;;;5.82;3.50;;;;;;;22.23;62.12;94465.31;2618937;54;20160;-82
2022/09/09 21:43:30;;;;;;;3.70;3.42;;;;;;;22.58;60.49;94459.69;2618959;54;20153;-83
2022/09/09 21:46:02;;;;;;;3.33;3.08;;;;;;;22.37;59.95;94394.41;2619622;54;20268;-81
2022/09/09 21:48:31;;;;;;;3.47;3.27;;;;;;;22.23;59.28;94363.63;2619211;54;20419;-82
2022/09/09 21:51:05;;;;;;;6.00;4.30;;;;;;;22.62;60.39;94424.28;2618416;54;20148;-81
2022/09/09 21:53:34;;;;;;;4.43;4.03;;;;;;;22.65;62.20;94487.00;2616027;54;20271;-81
2022/09/09 21:56:05;;;;;;;4.03;3.72;;;;;;;22.28;64.14;94503.44;2616466;47;20168;-82
2022/09/09 21:58:37;;;;;;;3.92;3.63;;;;;;;21.48;65.75;94448.31;2617467;39;20584;-83
2022/09/09 22:01:11;;;;;;;4.00;3.25;;;;;;;20.41;67.36;94355.94;2616934;54;20172;-83
2022/09/09 22:03:41;;;;;;;4.28;3.95;;;;;;;21.26;67.54;94484.59;2617104;54;20243;-81
2022/09/09 22:10:02;;;;;;;4.05;3.65;;;;;;;19.56;72.88;94419.09;2615978;47;20204;-82
2022/09/09 22:12:31;;;;;;;7.07;3.35;;;;;;;19.47;70.48;94323.63;2616797;47;20161;-82
2022/09/09 22:15:02;;;;;;;3.50;3.28;;;;;;;20.03;70.62;94410.88;2616895;54;20299;-81
2022/09/09 22:17:31;;;;;;;4.15;3.85;;;;;;;18.91;72.00;94325.38;2616315;47;20165;-82
2022/09/09 22:20:00;;;;;;;7.18;3.65;;;;;;;19.81;73.74;94472.13;2617050;39;20601;-81
2022/09/09 22:22:29;;;;;;;2.97;2.78;;;;;;;19.54;71.84;94368.13;2621704;54;20160;-81
2022/09/09 22:24:59;;;;;;;5.07;3.95;;;;;;;20.73;67.75;94429.00;2621202;47;20204;-82
2022/09/09 22:27:28;;;;;;;4.00;3.47;;;;;;;20.54;65.13;94313.38;2619379;54;20236;-82
2022/09/09 22:29:57;;;;;;;3.88;3.38;;;;;;;22.01;63.61;94477.16;2616124;54;20160;-82
2022/09/09 22:32:28;;;;;;;4.68;3.92;;;;;;;21.13;67.29;94471.03;2616043;54;21117;-82
2022/09/09 22:34:57;;;;;;;3.60;3.35;;;;;;;20.92;67.92;94465.47;2615673;54;20239;-81
2022/09/09 22:37:26;;;;;;;6.78;4.45;;;;;;;20.36;66.26;94330.84;2616258;54;20172;-82
2022/09/09 22:39:55;;;;;;;3.40;3.20;;;;;;;21.15;64.21;94373.81;2616735;54;20168;-81
2022/09/09 22:42:24;;;;;;;3.60;3.30;;;;;;;21.55;64.18;94423.75;2619500;54;20145;-81
2022/09/09 22:44:52;;;;;;;5.18;3.67;;;;;;;21.64;62.22;94378.94;2618651;54;20324;-81
2022/09/09 22:47:21;;;;;;;4.57;3.58;;;;;;;22.03;63.88;94470.66;2618808;54;20180;-81
2022/09/09 22:49:55;;;;;;;3.80;3.50;;;;;;;21.16;67.70;94461.63;2618747;47;20152;-82
2022/09/09 22:52:24;;;;;;;4.80;3.28;;;;;;;20.63;65.08;94334.84;2619724;54;20278;-81
2022/09/09 22:54:53;;;;;;;3.53;3.15;;;;;;;20.52;66.24;94327.75;2618911;54;20164;-81
2022/09/09 22:57:22;;;;;;;3.65;3.45;;;;;;;20.80;65.94;94375.66;2618311;39;20309;-83
2022/09/09 22:59:51;;;;;;;3.38;3.20;;;;;;;21.03;62.73;94313.50;2618282;54;20175;-81
2022/09/09 23:02:20;;;;;;;3.63;3.25;;;;;;;21.10;62.76;94314.84;2617952;54;20161;-82
2022/09/09 23:04:52;;;;;;;4.47;3.58;;;;;;;20.38;67.12;94354.50;2617154;54;20157;-82
2022/09/09 23:07:22;;;;;;;4.63;4.07;;;;;;;21.37;65.76;94478.69;2618574;54;20145;-82
2022/09/09 23:09:51;;;;;;;4.10;3.72;;;;;;;21.55;65.20;94473.44;2618889;54;20160;-82
2022/09/09 23:12:21;;;;;;;6.10;4.00;;;;;;;20.46;67.20;94360.19;2618131;54;20168;-82
2022/09/09 23:14:50;;;;;;;4.70;3.45;;;;;;;21.31;64.27;94377.97;2618345;54;20156;-82
2022/09/09 23:17:19;;;;;;;3.65;3.00;;;;;;;21.55;64.96;94423.75;2618616;54;20145;-82
2022/09/09 23:19:55;;;;;;;4.55;3.88;;;;;;;21.17;64.18;94358.69;2618331;54;20244;-81
2022/09/09 23:22:29;;;;;;;3.47;3.25;;;;;;;20.94;64.42;94301.38;2618471;39;20555;-82
2022/09/09 23:24:59;;;;;;;3.60;3.30;;;;;;;20.99;68.47;94445.97;2618070;54;20180;-82
2022/09/09 23:27:28;;;;;;;5.13;3.60;;;;;;;20.00;68.90;94305.97;2619383;47;20149;-82
2022/09/09 23:29:57;;;;;;;3.92;3.63;;;;;;;20.38;68.36;94345.88;2625903;39;20233;-82
2022/09/09 23:32:26;;;;;;;3.22;2.78;;;;;;;20.12;67.11;94280.69;2617811;47;20211;-82
2022/09/09 23:34:55;;;;;;;4.85;3.35;;;;;;;20.47;68.10;94335.03;2619711;54;20149;-82
2022/09/09 23:37:28;;;;;;;3.20;2.90;;;;;;;19.67;69.96;94274.66;2626831;54;20201;-80
2022/09/09 23:39:57;;;;;;;3.90;3.60;;;;;;;19.25;71.23;94255.59;2618105;47;20160;-81
2022/09/09 23:42:26;;;;;;;5.03;3.50;;;;;;;20.39;72.00;94421.38;2617486;54;20705;-82
2022/09/09 23:44:56;;;;;;;2.95;2.75;;;;;;;20.23;72.65;94433.72;2617362;47;20163;-81
2022/09/09 23:47:24;;;;;;;3.47;3.17;;;;;;;19.62;72.32;94313.47;2617590;39;20562;-81
2022/09/09 23:49:53;;;;;;;4.15;3.00;;;;;;;19.56;73.11;94333.63;2617618;54;20145;-81
2022/09/09 23:52:25;;;;;;;3.55;3.28;;;;;;;20.05;74.41;94423.09;2617252;54;20153;-81
2022/09/09 23:54:56;;;;;;;6.32;4.30;;;;;;;19.21;75.29;94341.72;2617887;47;20165;-81
2022/09/09 23:57:25;;;;;;;4.53;4.05;;;;;;;20.16;73.30;94430.19;2617986;54;20322;-80
2022/09/09 23:59:54;;;;;;;4.03;3.72;;;;;;;19.81;75.17;94429.00;2617696;47;20157;-82
